Latest Weather Observations for Omeo

IDV60801

Issued at 11:52 pm EDT Tuesday 26 January 2021 (issued every 10 minutes, with the page automatically refreshed every 10 minutes)

About weather observations | Map of weather stations | Latest weather observations for VIC | Other Formats
Station Details ID: 083090 Name: OMEO Lat: -37.10 Lon: 147.60 Height: 689.8 m
Data from the previous 72 hours. | See also: Recent months at Omeo
Date/Time
EDT
Temp
°C
App
Temp
°C
Dew
Point
°C
Rel
Hum
%
Delta-T
°C
Wind Press
QNH
hPa
Press
MSL
hPa
Rain since
9am
mm
Dir  Spd
km/h
Gust
km/h
Spd
kts
Gust
kts
26/11:30pm 13.6 13.0 13.4 99 0.1 SSE 9 17 5 9 1011.2 1008.2 22.0
26/11:00pm 13.6 12.2 13.4 99 0.1 SE 13 20 7 11 1010.9 1007.8 22.0
26/10:30pm 13.7 12.0 13.5 99 0.1 SE 15 22 8 12 1010.7 1007.6 22.0
26/10:00pm 13.8 12.5 13.6 99 0.1 SSE 13 22 7 12 1010.5 1007.4 22.0
26/09:30pm 14.0 12.7 13.8 99 0.1 SE 13 22 7 12 1009.9 1006.9 21.6
26/09:00pm 14.1 12.5 13.9 99 0.1 SE 15 24 8 13 1009.4 1006.3 21.6
26/08:30pm 14.1 12.8 13.8 98 0.2 SSE 13 22 7 12 1008.9 1005.8 21.6
26/08:00pm 14.7 12.4 14.2 97 0.3 SE 19 30 10 16 1008.1 1005.0 21.6
26/07:30pm 15.6 14.8 15.0 96 0.4 SE 13 20 7 11 1007.6 1004.5 21.6
26/07:00pm 16.3 16.1 15.7 96 0.4 SE 11 17 6 9 1007.3 1004.1 21.6
26/06:30pm 16.4 16.6 15.8 96 0.4 SE 9 15 5 8 1006.8 1003.7 21.6
26/06:00pm 16.4 16.2 15.8 96 0.4 SE 11 19 6 10 1006.5 1003.4 21.6
26/05:30pm 16.7 16.2 15.9 95 0.5 SE 13 24 7 13 1006.5 1003.4 21.6
26/05:00pm 17.1 16.9 16.6 97 0.3 SE 13 20 7 11 1006.2 1003.1 21.6
26/04:30pm 16.9 16.2 16.4 97 0.3 SE 15 24 8 13 1006.0 1002.8 21.6
26/04:00pm 16.8 16.4 16.3 97 0.3 SE 13 19 7 10 1005.7 1002.5 21.6
26/03:30pm 17.8 18.0 16.8 94 0.6 SE 11 19 6 10 1005.3 1002.2 21.4
26/03:00pm 17.8 19.0 17.3 97 0.3 S 7 11 4 6 1005.1 1002.0 21.4
26/02:30pm 16.8 17.7 16.6 99 0.1 SSE 7 11 4 6 1004.9 1001.8 21.4
26/02:00pm 16.2 16.5 15.9 98 0.2 SSE 9 19 5 10 1004.8 1001.7 19.4
26/01:30pm 16.4 15.5 15.9 97 0.3 S 15 33 8 18 1004.5 1001.3 16.0
26/01:00pm 18.0 18.4 16.3 90 1.0 S 9 20 5 11 1003.5 1000.4 6.4
26/12:30pm 18.8 20.1 18.5 98 0.2 N 9 13 5 7 1003.3 1000.1 3.6
26/12:00pm 19.0 19.8 18.2 95 0.5 NNW 11 17 6 9 1003.1 999.9 2.0
26/11:30am 19.7 19.0 17.3 86 1.5 NNW 17 22 9 12 1002.9 999.7 1.0
26/11:00am 19.3 18.0 16.9 86 1.5 N 19 24 10 13 1002.8 999.6 1.0
26/10:30am 22.9 19.7 15.2 62 4.7 NNW 26 41 14 22 1002.3 999.2 0.0
26/10:00am 24.4 21.0 14.8 55 5.9 NNW 26 41 14 22 1002.2 999.1 0.0
26/09:40am 24.0 19.5 13.8 53 6.2 NNW 30 48 16 26 1001.8 998.6 0.0
26/09:30am 24.5 22.0 14.0 52 6.4 NNW 20 30 11 16 1001.7 998.5 0.0
26/09:00am 24.7 22.0 13.6 50 6.7 N 20 28 11 15 1001.6 998.4 0.0
26/08:30am 24.6 21.5 13.5 50 6.7 NNW 22 39 12 21 1001.7 998.5 0.0
26/08:00am 24.6 20.0 12.2 46 7.3 N 28 50 15 27 1001.9 998.7 0.0
26/07:30am 24.7 20.8 10.9 42 8.0 N 22 37 12 20 1001.5 998.3 0.0
26/07:00am 25.2 22.5 9.1 36 9.1 NW 13 30 7 16 1001.5 998.3 0.0
26/06:30am 25.7 21.6 7.8 32 9.8 NNW 19 37 10 20 1001.4 998.2 0.0
26/06:05am 26.4 20.5 7.4 30 10.4 NNW 28 46 15 25 1000.9 997.8 0.0
26/06:00am 26.3 21.8 6.9 29 10.6 NNW 20 33 11 18 1000.9 997.8 0.0
26/05:30am 25.3 21.4 5.5 28 10.4 N 15 20 8 11 1000.6 997.4 0.0
26/05:00am 26.8 22.1 5.1 25 11.5 NNW 19 30 10 16 1000.8 997.7 0.0
26/04:30am 27.0 21.6 4.7 24 11.7 NNW 22 35 12 19 1000.8 997.7 0.0
26/04:00am 25.5 22.7 7.1 31 10.0 NW 11 19 6 10 1001.3 998.1 0.0
26/03:30am 25.4 22.9 8.0 33 9.6 NW 11 15 6 8 1001.3 998.1 0.0
26/03:00am 24.6 21.8 8.5 36 9.0 NW 13 19 7 10 1001.6 998.4 0.0
26/02:30am 26.4 22.8 8.4 32 10.0 N 17 28 9 15 1001.3 998.1 0.0
26/02:00am 26.2 22.8 9.1 34 9.7 N 17 24 9 13 1001.5 998.3 0.0
26/01:30am 23.7 22.5 11.7 47 7.0 NW 9 11 5 6 1001.9 998.7 0.0
26/01:00am 23.5 22.8 11.9 48 6.8 NW 7 9 4 5 1001.9 998.7 0.0
26/12:30am 24.5 23.4 11.8 45 7.4 N 9 13 5 7 1002.1 998.9 0.0
26/12:00am 25.2 23.3 11.7 43 8.0 NNW 13 19 7 10 1002.2 999.1 0.0
 
Date/Time
EDT
Temp
°C
App
Temp
°C
Dew
Point
°C
Rel
Hum
%
Delta-T
°C
Wind Press
QNH
hPa
Press
MSL
hPa
Rain since
9am
mm
Dir  Spd
km/h
Gust
km/h
Spd
kts
Gust
kts
25/11:30pm 25.5 24.3 11.7 42 8.1 NW 9 11 5 6 1002.7 999.5 0.0
25/11:00pm 25.9 24.6 11.3 40 8.6 NW 9 11 5 6 1002.9 999.7 0.0
25/10:30pm 25.8 24.2 11.6 41 8.3 N 11 17 6 9 1003.0 999.8 0.0
25/10:00pm 26.7 24.6 11.2 38 9.1 N 13 20 7 11 1003.3 1000.1 0.0
25/09:30pm 28.0 25.3 10.2 33 10.3 N 15 24 8 13 1003.5 1000.4 0.0
25/09:00pm 28.5 25.4 10.2 32 10.7 N 17 24 9 13 1003.3 1000.1 0.0
25/08:30pm 29.4 24.8 9.5 29 11.5 NNW 24 35 13 19 1003.4 1000.2 0.0
25/08:00pm 29.3 25.7 10.4 31 11.1 N 20 33 11 18 1002.8 999.6 0.0
25/07:30pm 29.4 26.4 10.5 31 11.1 N 17 32 9 17 1003.1 999.9 0.0
25/07:00pm 30.6 25.0 10.0 28 12.1 N 30 48 16 26 1003.2 1000.0 0.0
25/06:58pm 30.6 25.3 10.0 28 12.0 N 28 48 15 26 1003.2 1000.0 0.0
25/06:30pm 32.1 28.3 9.0 24 13.4 N 19 30 10 16 1002.9 999.7 0.0
25/06:00pm 32.8 28.2 8.3 22 14.1 NNW 22 35 12 19 1003.0 999.8 0.0
25/05:30pm 32.7 28.1 8.2 22 14.0 NNW 22 33 12 18 1003.4 1000.2 0.0
25/05:00pm 33.9 30.1 9.9 23 14.2 NW 20 32 11 17 1003.9 1000.8 0.0
25/04:30pm 32.0 27.9 10.1 26 12.9 NW 22 32 12 17 1004.5 1001.3 0.0
25/04:00pm 30.4 26.1 10.9 30 11.6 WNW 24 39 13 21 1004.9 1001.8 0.0
25/03:38pm 31.9 25.9 10.0 26 12.9 NW 32 50 17 27 1005.1 1002.0 0.0
25/03:30pm 33.4 28.0 9.4 23 14.1 NW 28 41 15 22 1004.9 1001.8 0.0
25/03:13pm 34.2 28.4 9.4 22 14.6 N 30 48 16 26 1004.9 1001.8 0.0
25/03:00pm 33.9 29.5 10.5 24 14.0 N 24 44 13 24 1005.1 1002.0 0.0
25/02:35pm 34.5 28.8 9.7 22 14.7 N 30 52 16 28 1005.8 1002.6 0.0
25/02:30pm 34.1 29.2 10.0 23 14.3 N 26 44 14 24 1006.0 1002.8 0.0
25/02:00pm 34.0 28.9 10.6 24 14.0 NNW 28 46 15 25 1006.5 1003.4 0.0
25/01:54pm 33.5 28.3 10.2 24 13.8 N 28 46 15 25 1006.7 1003.6 0.0
25/01:30pm 32.6 27.9 10.6 26 13.1 N 26 43 14 23 1007.3 1004.1 0.0
25/01:13pm 33.8 30.0 11.0 25 13.7 NNW 22 48 12 26 1007.5 1004.4 0.0
25/01:00pm 33.5 29.6 10.8 25 13.6 N 22 39 12 21 1007.6 1004.5 0.0
25/12:30pm 32.2 28.7 10.3 26 12.9 N 19 35 10 19 1008.0 1004.9 0.0
25/12:00pm 31.1 27.1 10.4 28 12.2 N 22 35 12 19 1008.8 1005.7 0.0
25/11:30am 30.9 26.1 10.3 28 12.1 N 26 35 14 19 1008.9 1005.8 0.0
25/11:00am 31.5 26.7 10.2 27 12.6 N 26 39 14 21 1008.9 1005.8 0.0
25/10:30am 31.0 26.7 10.9 29 11.9 N 24 35 13 19 1009.2 1006.1 0.0
25/10:00am 29.6 25.7 10.7 31 11.1 N 22 32 12 17 1009.6 1006.5 0.0
25/09:30am 27.3 23.8 10.9 36 9.6 N 20 28 11 15 1010.1 1007.1 0.0
25/09:00am 24.7 21.4 10.9 42 8.0 N 19 24 10 13 1010.5 1007.4 0.0
25/08:30am 21.7 19.3 11.4 52 5.9 N 15 20 8 11 1010.7 1007.6 0.0
25/08:00am 18.3 16.3 11.4 64 3.9 N 13 19 7 10 1010.7 1007.6 0.0
25/07:30am 16.3 13.5 11.2 72 2.8 N 17 22 9 12 1010.7 1007.6 0.0
25/07:00am 15.9 12.8 11.5 75 2.5 N 19 26 10 14 1010.2 1007.2 0.0
25/06:30am 16.0 12.6 11.4 74 2.6 N 20 28 11 15 1010.2 1007.2 0.0
25/06:00am 15.8 12.6 11.2 74 2.6 N 19 24 10 13 1010.0 1007.0 0.0
25/05:30am 15.0 13.2 10.8 76 2.3 N 11 19 6 10 1009.9 1006.9 0.0
25/05:00am 15.3 13.5 10.9 75 2.4 N 11 15 6 8 1009.9 1006.9 0.0
25/04:30am 15.2 14.4 11.6 79 2.0 NW 7 9 4 5 1009.8 1006.7 0.0
25/04:00am 15.5 14.9 11.7 78 2.1 N 6 7 3 4 1009.9 1006.9 0.0
25/03:30am 15.7 15.5 11.9 78 2.1 NW 4 7 2 4 1010.2 1007.2 0.0
25/03:00am 15.3 16.0 12.2 82 1.8 CALM 0 0 0 0 1010.4 1007.3 0.0
25/02:30am 16.0 16.8 12.4 79 2.0 CALM 0 0 0 0 1010.7 1007.6 0.0
25/02:00am 16.3 17.0 12.3 77 2.3 CALM 0 0 0 0 1010.9 1007.8 0.0
25/01:30am 16.8 17.6 12.5 76 2.5 CALM 0 0 0 0 1011.3 1008.3 0.0
25/01:00am 17.2 18.0 12.5 74 2.7 CALM 0 0 0 0 1011.5 1008.5 0.0
25/12:30am 17.7 18.4 12.2 70 3.1 CALM 0 0 0 0 1011.7 1008.7 0.0
25/12:00am 18.9 19.1 12.9 68 3.5 S 4 11 2 6 1012.1 1009.0 0.0
 
Date/Time
EDT
Temp
°C
App
Temp
°C
Dew
Point
°C
Rel
Hum
%
Delta-T
°C
Wind Press
QNH
hPa
Press
MSL
hPa
Rain since
9am
mm
Dir  Spd
km/h
Gust
km/h
Spd
kts
Gust
kts
24/11:30pm 19.3 20.1 12.6 65 3.9 CALM 0 0 0 0 1012.2 1009.1 0.0
24/11:00pm 19.8 19.4 12.3 62 4.3 SSE 6 7 3 4 1012.4 1009.3 0.0
24/10:30pm 20.8 21.3 11.7 56 5.2 CALM 0 0 0 0 1012.5 1009.5 0.0
24/10:00pm 22.3 22.4 11.4 50 6.3 S 2 7 1 4 1012.6 1009.6 0.0
24/09:30pm 23.3 23.1 11.7 48 6.7 SSE 4 7 2 4 1012.4 1009.3 0.0
24/09:00pm 24.9 23.4 11.8 44 7.7 SSE 11 19 6 10 1012.1 1009.0 0.0
24/08:30pm 26.0 24.8 11.7 41 8.4 SSE 9 15 5 8 1012.0 1008.9 0.0
24/08:00pm 27.2 24.9 11.7 38 9.2 SE 15 22 8 12 1011.9 1008.8 0.0
24/07:30pm 28.2 25.6 12.1 37 9.6 SE 17 26 9 14 1011.6 1008.6 0.0
24/07:00pm 29.0 26.5 12.4 36 10.0 SE 17 30 9 16 1011.3 1008.3 0.0
24/06:30pm 30.0 27.1 12.4 34 10.6 SSE 19 28 10 15 1011.2 1008.2 0.0
24/06:00pm 31.3 28.8 11.1 29 12.0 SE 15 24 8 13 1011.1 1008.0 0.0
24/05:30pm 32.1 28.8 10.8 27 12.7 SE 19 28 10 15 1011.3 1008.3 0.0
24/05:00pm 31.9 28.9 10.6 27 12.6 SE 17 26 9 14 1011.3 1008.3 0.0
24/04:30pm 32.0 28.3 10.1 26 12.9 SE 20 33 11 18 1011.3 1008.3 0.0
24/04:00pm 32.9 29.8 10.3 25 13.4 SE 17 30 9 16 1011.4 1008.4 0.0
24/03:30pm 34.1 30.6 8.7 21 14.8 SE 17 28 9 15 1011.5 1008.5 0.0
24/03:00pm 36.0 32.7 8.0 18 16.2 SE 15 24 8 13 1011.6 1008.6 0.0
24/02:30pm 34.1 30.9 2.8 14 16.6 WSW 9 15 5 8 1012.2 1009.1 0.0
24/02:00pm 34.9 32.2 5.4 16 16.4 NNE 9 17 5 9 1012.4 1009.3 0.0
24/01:30pm 34.6 31.2 4.2 15 16.5 WSW 11 22 6 12 1012.8 1009.8 0.0
24/01:00pm 33.5 29.9 5.1 17 15.6 WNW 13 28 7 15 1013.2 1010.2 0.0
24/12:30pm 33.1 29.5 4.8 17 15.4 SW 13 22 7 12 1013.6 1010.5 0.0
24/12:00pm 33.0 28.8 5.5 18 15.1 W 17 32 9 17 1013.6 1010.5 0.0
24/11:30am 31.5 28.2 6.5 21 13.9 NNE 13 20 7 11 1013.7 1010.6 0.0
24/11:00am 29.4 27.0 10.0 30 11.3 N 13 20 7 11 1014.1 1011.1 0.0
24/10:30am 26.9 24.3 10.6 36 9.5 N 15 20 8 11 1014.4 1011.4 0.0
24/10:00am 24.8 22.2 10.7 41 8.1 N 15 22 8 12 1014.7 1011.7 0.0
24/09:30am 23.1 20.8 11.8 49 6.6 N 15 19 8 10 1015.0 1011.9 0.0
24/09:00am 20.5 19.1 12.2 59 4.8 N 11 17 6 9 1015.1 1012.1 0.0
24/08:30am 17.3 16.0 11.3 68 3.4 N 9 15 5 8 1015.0 1011.9 0.0
24/08:00am 15.0 14.4 11.6 80 1.9 NNW 6 13 3 7 1014.6 1011.6 0.0
24/07:30am 13.1 12.3 11.2 88 1.0 WNW 6 9 3 5 1014.8 1011.8 0.0
24/07:00am 12.1 11.0 10.8 92 0.7 NW 7 13 4 7 1014.4 1011.4 0.0
24/06:30am 11.7 11.3 11.2 97 0.3 N 4 6 2 3 1014.3 1011.3 0.0
24/06:00am 12.1 11.3 11.8 98 0.2 WNW 7 9 4 5 1014.3 1011.3 0.0
24/05:30am 11.7 12.1 11.2 97 0.3 CALM 0 0 0 0 1014.1 1011.1 0.0
24/05:00am 11.9 12.3 11.3 96 0.3 CALM 0 0 0 0 1013.9 1010.9 0.0
24/04:30am 12.8 13.5 12.3 97 0.3 CALM 0 0 0 0 1013.7 1010.6 0.0
24/04:00am 12.2 12.6 11.3 94 0.5 CALM 0 0 0 0 1013.8 1010.8 0.0
24/03:30am 13.0 13.6 11.9 93 0.6 CALM 0 0 0 0 1013.8 1010.8 0.0
24/03:00am 13.3 14.1 12.5 95 0.4 CALM 0 0 0 0 1014.0 1011.0 0.0
24/02:30am 13.5 14.3 12.6 94 0.5 CALM 0 0 0 0 1014.2 1011.2 0.0
24/02:00am 13.3 13.7 11.4 88 1.0 CALM 0 0 0 0 1014.4 1011.4 0.0
24/01:30am 14.1 14.8 12.1 88 1.1 CALM 0 0 0 0 1014.5 1011.5 0.0
24/01:00am 14.5 14.0 12.0 85 1.4 SSE 6 7 3 4 1014.7 1011.7 0.0
24/12:30am 15.0 15.6 12.0 82 1.7 CALM 0 0 0 0 1014.8 1011.8 0.0
24/12:00am 16.1 15.8 12.7 80 1.9 SE 6 9 3 5 1015.0 1011.9 0.0

Other formats

Comma delimited format used in spreadsheet applications
http://www.bom.gov.au/fwo/IDV60801/IDV60801.94908.axf

JavaScript Object Notation format (JSON) in row-major order
http://www.bom.gov.au/fwo/IDV60801/IDV60801.94908.json

Data quality

Most of these data are generated automatically and are frequently updated. Quality checks on data are not normally performed. It is possible for incorrect values to appear. Refer to information at About Latest Weather Observations and please check the disclaimer before using these data.